Thomson Majesty — 9HA2188 — position and weather

sailwx.info

Track history (hours):
 
Tides and Currents Weather Stations Pressure Air Temp Water Temp Dewpoint Dewpoint Depression Visibility Wind Speed Wind Dir Waves Ship Positions

Thomson Majesty

Last reported at 2016-Sep-27 23:33 UTC. Time now 2016-Sep-28 00:11 UTC.
Position N 39°16' E 003°09'.

Length 207 m; draft 6.2 m.

Type: Ship. MMSI: 248124000.

Date/timePositionNaut miles runAvg speedWind from/ knotsBaromVisibWave heightAir tempDewpointWater temp
2016-Sep-27 23:33N 39°16' E 003°09'30 7.4
2016-Sep-27 19:32N 39°33' E 002°38'0 0.0
2016-Sep-27 14:32N 39°33' E 002°38'0 0.0
2016-Sep-27 13:32N 39°33' E 002°38'0 0.0
2016-Sep-27 10:32N 39°33' E 002°38'20 2.0
2016-Sep-27 00:34N 39°41' E 002°14'5012.4
2016-Sep-26 20:33N 40°31' E 002°13'1212.4
2016-Sep-26 19:33N 40°43' E 002°13'74 4.2
2016-Sep-26 02:09N 41°42' E 003°11'812.6
2016-Sep-26 01:32N 41°46' E 003°21'10212.4
2016-Sep-25 17:17N 43°01' E 004°54'911.9
2016-Sep-25 16:33N 43°08' E 005°01'1413.6
2016-Sep-25 15:33N 43°18' E 005°14'5 4.6
2016-Sep-25 14:29N 43°21' E 005°20'0 0.0
2016-Sep-25 12:29N 43°21' E 005°20'0 0.0
2016-Sep-25 11:29N 43°21' E 005°20'0 0.0
2016-Sep-25 10:29N 43°21' E 005°20'0 0.0
2016-Sep-25 09:32N 43°21' E 005°20'0 0.0
2016-Sep-25 07:20N 43°21' E 005°20'8 2.7
2016-Sep-25 04:33N 43°14' E 005°16'13312.1
2016-Sep-24 17:30N 42°40' E 008°12'26 8.1
2016-Sep-24 14:19N 42°34' E 008°46'38 2.7
2016-Sep-24 00:09N 43°08' E 009°08'38 8.2
2016-Sep-23 19:33N 43°18' E 009°57'17 8.7
2016-Sep-23 17:33N 43°31' E 010°13'5 4.8
2016-Sep-23 16:32N 43°34' E 010°18'0 0.0
2016-Sep-23 15:32N 43°34' E 010°18'0 0.0
2016-Sep-23 13:32N 43°34' E 010°18'0 0.0
2016-Sep-23 09:32N 43°34' E 010°18'0 0.0
2016-Sep-23 06:33N 43°34' E 010°18'0 0.0
2016-Sep-23 04:33N 43°34' E 010°18'6 5.5
2016-Sep-23 03:33N 43°30' E 010°13'1110.9
2016-Sep-23 02:33N 43°31' E 009°58'1110.6
2016-Sep-23 01:33N 43°31' E 009°44'1211.5
2016-Sep-23 00:33N 43°32' E 009°28'1111.4
2016-Sep-22 23:33N 43°33' E 009°12'3411.3
2016-Sep-22 20:33N 43°36' E 008°25'48 6.0
2016-Sep-22 12:31N 43°42' E 007°19'0 0.0
2016-Sep-22 04:33N 43°42' E 007°19'8 8.4
2016-Sep-22 03:33N 43°34' E 007°16'28211.8
2016-Sep-21 03:33N 40°11' E 002°52'1313.1
2016-Sep-21 02:33N 40°01' E 002°40'28 3.1
2016-Sep-20 17:34N 39°33' E 002°38'0 0.0
2016-Sep-20 14:33N 39°33' E 002°38'0 0.0
2016-Sep-20 13:33N 39°33' E 002°38'0 0.0
2016-Sep-20 10:33N 39°33' E 002°38'0 0.0
2016-Sep-20 08:34N 39°33' E 002°38'0 0.0
2016-Sep-20 07:33N 39°33' E 002°38'0 0.0
2016-Sep-20 06:07N 39°33' E 002°38'8 2.2
2016-Sep-20 02:33N 39°26' E 002°40'3311.1
2016-Sep-19 23:33N 39°07' E 003°15'42413.3
2016-Sep-18 15:33N 38°03' E 012°12'1414.4
2016-Sep-18 14:33N 38°00' E 012°30'1 0.2
2016-Sep-18 10:26N 38°01' E 012°30'0 0.0
2016-Sep-18 09:23N 38°01' E 012°30'34 4.9
2016-Sep-18 02:33N 38°34' E 012°39'1615.2
2016-Sep-18 01:30N 38°48' E 012°49'  
Track history (hours):
 
Tides and Currents Weather Stations Pressure Air Temp Water Temp Dewpoint Dewpoint Depression Visibility Wind Speed Wind Dir Waves Ship Positions

Thomson Majesty

Last reported at 2016-Sep-27 23:33 UTC. Time now 2016-Sep-28 00:11 UTC.
Position N 39°16' E 003°09'.

Length 207 m; draft 6.2 m.

Type: Ship. MMSI: 248124000.

Date/timePositionNaut miles runAvg speedWind from/ knotsBaromVisibWave heightAir tempDewpointWater temp
2016-Sep-27 23:33N 39°16' E 003°09'30 7.4
2016-Sep-27 19:32N 39°33' E 002°38'0 0.0
2016-Sep-27 14:32N 39°33' E 002°38'0 0.0
2016-Sep-27 13:32N 39°33' E 002°38'0 0.0
2016-Sep-27 10:32N 39°33' E 002°38'20 2.0
2016-Sep-27 00:34N 39°41' E 002°14'5012.4
2016-Sep-26 20:33N 40°31' E 002°13'1212.4
2016-Sep-26 19:33N 40°43' E 002°13'74 4.2
2016-Sep-26 02:09N 41°42' E 003°11'812.6
2016-Sep-26 01:32N 41°46' E 003°21'10212.4
2016-Sep-25 17:17N 43°01' E 004°54'911.9
2016-Sep-25 16:33N 43°08' E 005°01'1413.6
2016-Sep-25 15:33N 43°18' E 005°14'5 4.6
2016-Sep-25 14:29N 43°21' E 005°20'0 0.0
2016-Sep-25 12:29N 43°21' E 005°20'0 0.0
2016-Sep-25 11:29N 43°21' E 005°20'0 0.0
2016-Sep-25 10:29N 43°21' E 005°20'0 0.0
2016-Sep-25 09:32N 43°21' E 005°20'0 0.0
2016-Sep-25 07:20N 43°21' E 005°20'8 2.7
2016-Sep-25 04:33N 43°14' E 005°16'13312.1
2016-Sep-24 17:30N 42°40' E 008°12'26 8.1
2016-Sep-24 14:19N 42°34' E 008°46'38 2.7
2016-Sep-24 00:09N 43°08' E 009°08'38 8.2
2016-Sep-23 19:33N 43°18' E 009°57'17 8.7
2016-Sep-23 17:33N 43°31' E 010°13'5 4.8
2016-Sep-23 16:32N 43°34' E 010°18'0 0.0
2016-Sep-23 15:32N 43°34' E 010°18'0 0.0
2016-Sep-23 13:32N 43°34' E 010°18'0 0.0
2016-Sep-23 09:32N 43°34' E 010°18'0 0.0
2016-Sep-23 06:33N 43°34' E 010°18'0 0.0
2016-Sep-23 04:33N 43°34' E 010°18'6 5.5
2016-Sep-23 03:33N 43°30' E 010°13'1110.9
2016-Sep-23 02:33N 43°31' E 009°58'1110.6
2016-Sep-23 01:33N 43°31' E 009°44'1211.5
2016-Sep-23 00:33N 43°32' E 009°28'1111.4
2016-Sep-22 23:33N 43°33' E 009°12'3411.3
2016-Sep-22 20:33N 43°36' E 008°25'48 6.0
2016-Sep-22 12:31N 43°42' E 007°19'0 0.0
2016-Sep-22 04:33N 43°42' E 007°19'8 8.4
2016-Sep-22 03:33N 43°34' E 007°16'28211.8
2016-Sep-21 03:33N 40°11' E 002°52'1313.1
2016-Sep-21 02:33N 40°01' E 002°40'28 3.1
2016-Sep-20 17:34N 39°33' E 002°38'0 0.0
2016-Sep-20 14:33N 39°33' E 002°38'0 0.0
2016-Sep-20 13:33N 39°33' E 002°38'0 0.0
2016-Sep-20 10:33N 39°33' E 002°38'0 0.0
2016-Sep-20 08:34N 39°33' E 002°38'0 0.0
2016-Sep-20 07:33N 39°33' E 002°38'0 0.0
2016-Sep-20 06:07N 39°33' E 002°38'8 2.2
2016-Sep-20 02:33N 39°26' E 002°40'3311.1
2016-Sep-19 23:33N 39°07' E 003°15'42413.3
2016-Sep-18 15:33N 38°03' E 012°12'1414.4
2016-Sep-18 14:33N 38°00' E 012°30'1 0.2
2016-Sep-18 10:26N 38°01' E 012°30'0 0.0
2016-Sep-18 09:23N 38°01' E 012°30'34 4.9
2016-Sep-18 02:33N 38°34' E 012°39'1615.2
2016-Sep-18 01:30N 38°48' E 012°49'  

Dump ship's entire track history